sensor_id;sensor_type;location;lat;lon;timestamp;P1;durP1;ratioP1;P2;durP2;ratioP2
65130;SDS011;51709;54.912;8.316;2023-03-25T00:03:03;29.95;;;3.47;;
65130;SDS011;51709;54.912;8.316;2023-03-25T00:08:24;22.15;;;4.13;;
65130;SDS011;51709;54.912;8.316;2023-03-25T00:13:46;15.30;;;3.05;;
65130;SDS011;51709;54.912;8.316;2023-03-25T00:19:10;26.77;;;3.93;;
65130;SDS011;51709;54.912;8.316;2023-03-25T00:24:30;17.55;;;2.58;;
65130;SDS011;51709;54.912;8.316;2023-03-25T00:29:51;15.07;;;2.80;;
65130;SDS011;51709;54.912;8.316;2023-03-25T00:35:12;14.18;;;3.67;;
65130;SDS011;51709;54.912;8.316;2023-03-25T00:40:33;19.10;;;3.40;;
65130;SDS011;51709;54.912;8.316;2023-03-25T00:45:57;14.17;;;3.23;;
65130;SDS011;51709;54.912;8.316;2023-03-25T00:51:17;27.42;;;6.05;;
65130;SDS011;51709;54.912;8.316;2023-03-25T00:56:41;32.85;;;4.82;;
65130;SDS011;51709;54.912;8.316;2023-03-25T01:02:01;36.47;;;5.05;;
65130;SDS011;51709;54.912;8.316;2023-03-25T01:07:23;28.75;;;3.70;;
65130;SDS011;51709;54.912;8.316;2023-03-25T01:12:43;37.08;;;5.15;;
65130;SDS011;51709;54.912;8.316;2023-03-25T01:18:04;25.92;;;4.53;;
65130;SDS011;51709;54.912;8.316;2023-03-25T01:23:25;31.08;;;4.47;;
65130;SDS011;51709;54.912;8.316;2023-03-25T01:28:47;22.55;;;4.72;;
65130;SDS011;51709;54.912;8.316;2023-03-25T01:34:08;33.83;;;6.05;;
65130;SDS011;51709;54.912;8.316;2023-03-25T01:39:29;35.40;;;5.30;;
65130;SDS011;51709;54.912;8.316;2023-03-25T01:50:10;42.72;;;7.63;;
65130;SDS011;51709;54.912;8.316;2023-03-25T01:55:34;43.20;;;6.78;;
65130;SDS011;51709;54.912;8.316;2023-03-25T02:00:57;32.20;;;4.43;;
65130;SDS011;51709;54.912;8.316;2023-03-25T02:06:21;37.13;;;5.72;;
65130;SDS011;51709;54.912;8.316;2023-03-25T02:11:48;19.75;;;3.28;;
65130;SDS011;51709;54.912;8.316;2023-03-25T02:40:09;44.38;;;6.32;;
65130;SDS011;51709;54.912;8.316;2023-03-25T02:45:43;49.95;;;6.13;;
65130;SDS011;51709;54.912;8.316;2023-03-25T02:51:08;37.58;;;5.93;;
65130;SDS011;51709;54.912;8.316;2023-03-25T02:56:34;33.30;;;6.18;;
65130;SDS011;51709;54.912;8.316;2023-03-25T03:01:59;35.58;;;5.40;;
65130;SDS011;51709;54.912;8.316;2023-03-25T03:07:28;29.42;;;5.28;;
65130;SDS011;51709;54.912;8.316;2023-03-25T03:18:56;36.58;;;5.75;;
65130;SDS011;51709;54.912;8.316;2023-03-25T03:24:45;42.45;;;5.35;;
65130;SDS011;51709;54.912;8.316;2023-03-25T03:30:17;39.10;;;5.18;;
65130;SDS011;51709;54.912;8.316;2023-03-25T03:36:03;37.20;;;5.80;;
65130;SDS011;51709;54.912;8.316;2023-03-25T03:41:27;36.42;;;3.63;;
65130;SDS011;51709;54.912;8.316;2023-03-25T03:46:54;28.50;;;4.07;;
65130;SDS011;51709;54.912;8.316;2023-03-25T03:52:20;29.83;;;4.15;;
65130;SDS011;51709;54.912;8.316;2023-03-25T03:57:53;33.78;;;6.47;;
65130;SDS011;51709;54.912;8.316;2023-03-25T04:03:20;43.17;;;6.15;;
65130;SDS011;51709;54.912;8.316;2023-03-25T04:08:52;41.85;;;6.78;;
65130;SDS011;51709;54.912;8.316;2023-03-25T04:14:18;41.90;;;6.13;;
65130;SDS011;51709;54.912;8.316;2023-03-25T04:19:39;44.90;;;6.35;;
65130;SDS011;51709;54.912;8.316;2023-03-25T04:25:00;43.90;;;6.15;;
65130;SDS011;51709;54.912;8.316;2023-03-25T04:30:21;46.90;;;6.68;;
65130;SDS011;51709;54.912;8.316;2023-03-25T04:35:41;42.22;;;6.07;;
65130;SDS011;51709;54.912;8.316;2023-03-25T04:41:02;26.38;;;5.07;;
65130;SDS011;51709;54.912;8.316;2023-03-25T04:46:26;45.03;;;5.33;;
65130;SDS011;51709;54.912;8.316;2023-03-25T04:51:47;34.78;;;5.45;;
65130;SDS011;51709;54.912;8.316;2023-03-25T04:57:10;35.20;;;6.70;;
65130;SDS011;51709;54.912;8.316;2023-03-25T05:02:31;33.88;;;6.82;;
65130;SDS011;51709;54.912;8.316;2023-03-25T05:07:52;46.75;;;5.30;;
65130;SDS011;51709;54.912;8.316;2023-03-25T05:13:14;25.95;;;4.30;;
65130;SDS011;51709;54.912;8.316;2023-03-25T05:18:34;32.70;;;4.80;;
65130;SDS011;51709;54.912;8.316;2023-03-25T05:23:55;37.42;;;8.02;;
65130;SDS011;51709;54.912;8.316;2023-03-25T05:29:17;43.30;;;5.25;;
65130;SDS011;51709;54.912;8.316;2023-03-25T05:34:38;32.45;;;5.47;;
65130;SDS011;51709;54.912;8.316;2023-03-25T05:39:58;32.80;;;5.55;;
65130;SDS011;51709;54.912;8.316;2023-03-25T05:45:19;34.60;;;6.10;;
65130;SDS011;51709;54.912;8.316;2023-03-25T05:50:40;34.53;;;5.65;;
65130;SDS011;51709;54.912;8.316;2023-03-25T05:56:02;40.80;;;6.30;;
65130;SDS011;51709;54.912;8.316;2023-03-25T06:01:23;40.40;;;6.43;;
65130;SDS011;51709;54.912;8.316;2023-03-25T06:06:53;43.53;;;8.05;;
65130;SDS011;51709;54.912;8.316;2023-03-25T06:12:14;35.47;;;6.15;;
65130;SDS011;51709;54.912;8.316;2023-03-25T06:17:36;38.42;;;6.00;;
65130;SDS011;51709;54.912;8.316;2023-03-25T06:23:00;54.07;;;8.37;;
65130;SDS011;51709;54.912;8.316;2023-03-25T06:28:21;38.17;;;6.28;;
65130;SDS011;51709;54.912;8.316;2023-03-25T06:33:43;41.90;;;6.72;;
65130;SDS011;51709;54.912;8.316;2023-03-25T06:39:04;38.38;;;6.38;;
65130;SDS011;51709;54.912;8.316;2023-03-25T06:44:25;36.80;;;5.90;;
65130;SDS011;51709;54.912;8.316;2023-03-25T06:50:05;51.58;;;6.88;;
65130;SDS011;51709;54.912;8.316;2023-03-25T06:55:27;32.65;;;6.57;;
65130;SDS011;51709;54.912;8.316;2023-03-25T07:00:52;49.03;;;6.20;;
65130;SDS011;51709;54.912;8.316;2023-03-25T07:06:15;58.28;;;7.35;;
65130;SDS011;51709;54.912;8.316;2023-03-25T07:11:37;48.00;;;8.15;;
65130;SDS011;51709;54.912;8.316;2023-03-25T07:16:58;44.35;;;5.88;;
65130;SDS011;51709;54.912;8.316;2023-03-25T07:22:19;44.47;;;6.40;;
65130;SDS011;51709;54.912;8.316;2023-03-25T07:27:39;43.28;;;6.43;;
65130;SDS011;51709;54.912;8.316;2023-03-25T07:33:05;44.80;;;6.50;;
65130;SDS011;51709;54.912;8.316;2023-03-25T07:38:27;44.58;;;6.45;;
65130;SDS011;51709;54.912;8.316;2023-03-25T07:43:47;39.72;;;7.72;;
65130;SDS011;51709;54.912;8.316;2023-03-25T07:49:18;40.10;;;6.28;;
65130;SDS011;51709;54.912;8.316;2023-03-25T07:54:39;39.88;;;8.02;;
65130;SDS011;51709;54.912;8.316;2023-03-25T08:00:00;43.25;;;6.60;;
65130;SDS011;51709;54.912;8.316;2023-03-25T08:05:31;27.60;;;5.47;;
65130;SDS011;51709;54.912;8.316;2023-03-25T08:10:51;46.47;;;7.40;;
65130;SDS011;51709;54.912;8.316;2023-03-25T08:16:13;31.23;;;5.55;;
65130;SDS011;51709;54.912;8.316;2023-03-25T08:21:34;47.17;;;6.95;;
65130;SDS011;51709;54.912;8.316;2023-03-25T08:26:55;47.28;;;6.03;;
65130;SDS011;51709;54.912;8.316;2023-03-25T08:32:15;40.72;;;6.05;;
65130;SDS011;51709;54.912;8.316;2023-03-25T08:37:36;50.30;;;8.10;;
65130;SDS011;51709;54.912;8.316;2023-03-25T08:42:57;23.35;;;4.90;;
65130;SDS011;51709;54.912;8.316;2023-03-25T08:48:18;33.85;;;6.53;;
65130;SDS011;51709;54.912;8.316;2023-03-25T08:53:39;37.05;;;5.68;;
65130;SDS011;51709;54.912;8.316;2023-03-25T08:58:59;41.10;;;6.95;;
65130;SDS011;51709;54.912;8.316;2023-03-25T09:04:20;42.83;;;6.90;;
65130;SDS011;51709;54.912;8.316;2023-03-25T09:09:41;32.88;;;5.15;;
65130;SDS011;51709;54.912;8.316;2023-03-25T09:15:01;28.73;;;6.13;;
65130;SDS011;51709;54.912;8.316;2023-03-25T09:20:22;52.05;;;6.00;;
65130;SDS011;51709;54.912;8.316;2023-03-25T09:25:43;29.02;;;5.22;;
65130;SDS011;51709;54.912;8.316;2023-03-25T09:31:05;37.28;;;6.53;;
65130;SDS011;51709;54.912;8.316;2023-03-25T09:36:27;28.65;;;6.05;;
65130;SDS011;51709;54.912;8.316;2023-03-25T09:47:27;39.53;;;5.90;;
65130;SDS011;51709;54.912;8.316;2023-03-25T10:04:19;31.98;;;5.45;;
65130;SDS011;51709;54.912;8.316;2023-03-25T10:15:26;27.38;;;5.00;;
65130;SDS011;51709;54.912;8.316;2023-03-25T10:32:15;37.67;;;6.00;;
65130;SDS011;51709;54.912;8.316;2023-03-25T10:37:38;32.35;;;4.72;;
65130;SDS011;51709;54.912;8.316;2023-03-25T10:48:45;39.75;;;5.13;;
65130;SDS011;51709;54.912;8.316;2023-03-25T10:54:09;17.48;;;3.88;;
65130;SDS011;51709;54.912;8.316;2023-03-25T11:05:13;20.98;;;4.63;;
65130;SDS011;51709;54.912;8.316;2023-03-25T11:10:38;18.77;;;4.43;;
65130;SDS011;51709;54.912;8.316;2023-03-25T11:16:00;29.45;;;3.78;;
65130;SDS011;51709;54.912;8.316;2023-03-25T11:21:22;23.67;;;4.78;;
65130;SDS011;51709;54.912;8.316;2023-03-25T11:26:44;22.02;;;4.32;;
65130;SDS011;51709;54.912;8.316;2023-03-25T11:32:14;25.67;;;4.65;;
65130;SDS011;51709;54.912;8.316;2023-03-25T11:37:42;24.50;;;3.70;;
65130;SDS011;51709;54.912;8.316;2023-03-25T11:43:04;28.45;;;4.78;;
65130;SDS011;51709;54.912;8.316;2023-03-25T11:48:29;34.30;;;4.68;;
65130;SDS011;51709;54.912;8.316;2023-03-25T11:53:55;26.27;;;4.15;;
65130;SDS011;51709;54.912;8.316;2023-03-25T12:16:18;22.73;;;4.45;;
65130;SDS011;51709;54.912;8.316;2023-03-25T12:22:12;27.13;;;4.07;;
65130;SDS011;51709;54.912;8.316;2023-03-25T12:27:41;28.48;;;4.40;;
65130;SDS011;51709;54.912;8.316;2023-03-25T12:33:16;26.60;;;4.97;;
65130;SDS011;51709;54.912;8.316;2023-03-25T12:38:48;24.55;;;4.78;;
65130;SDS011;51709;54.912;8.316;2023-03-25T12:55:37;32.47;;;5.47;;
65130;SDS011;51709;54.912;8.316;2023-03-25T13:01:12;20.05;;;4.15;;
65130;SDS011;51709;54.912;8.316;2023-03-25T13:07:13;19.98;;;4.22;;
65130;SDS011;51709;54.912;8.316;2023-03-25T13:18:45;17.98;;;3.47;;
65130;SDS011;51709;54.912;8.316;2023-03-25T13:24:10;17.70;;;3.55;;
65130;SDS011;51709;54.912;8.316;2023-03-25T13:30:02;10.32;;;3.38;;
65130;SDS011;51709;54.912;8.316;2023-03-25T13:41:17;24.63;;;5.03;;
65130;SDS011;51709;54.912;8.316;2023-03-25T13:46:47;32.60;;;5.45;;
65130;SDS011;51709;54.912;8.316;2023-03-25T13:52:12;39.10;;;4.72;;
65130;SDS011;51709;54.912;8.316;2023-03-25T14:15:05;15.23;;;3.58;;
65130;SDS011;51709;54.912;8.316;2023-03-25T14:25:55;30.20;;;4.93;;
65130;SDS011;51709;54.912;8.316;2023-03-25T14:47:28;19.17;;;3.33;;
65130;SDS011;51709;54.912;8.316;2023-03-25T14:52:54;31.10;;;3.88;;
65130;SDS011;51709;54.912;8.316;2023-03-25T14:58:22;30.80;;;3.50;;
65130;SDS011;51709;54.912;8.316;2023-03-25T15:03:45;18.88;;;3.28;;
65130;SDS011;51709;54.912;8.316;2023-03-25T15:09:08;31.45;;;4.05;;
65130;SDS011;51709;54.912;8.316;2023-03-25T15:14:36;10.32;;;2.78;;
65130;SDS011;51709;54.912;8.316;2023-03-25T15:25:22;25.58;;;4.78;;
65130;SDS011;51709;54.912;8.316;2023-03-25T15:54:02;10.48;;;2.95;;
65130;SDS011;51709;54.912;8.316;2023-03-25T15:59:40;21.67;;;3.63;;
65130;SDS011;51709;54.912;8.316;2023-03-25T16:05:03;23.17;;;4.55;;
65130;SDS011;51709;54.912;8.316;2023-03-25T16:10:27;26.02;;;3.70;;
65130;SDS011;51709;54.912;8.316;2023-03-25T16:15:56;20.83;;;3.58;;
65130;SDS011;51709;54.912;8.316;2023-03-25T16:21:18;27.92;;;4.03;;
65130;SDS011;51709;54.912;8.316;2023-03-25T16:26:41;31.17;;;4.55;;
65130;SDS011;51709;54.912;8.316;2023-03-25T16:32:03;28.67;;;3.95;;
65130;SDS011;51709;54.912;8.316;2023-03-25T16:37:25;25.33;;;3.75;;
65130;SDS011;51709;54.912;8.316;2023-03-25T16:42:46;20.80;;;4.25;;
65130;SDS011;51709;54.912;8.316;2023-03-25T16:48:12;14.68;;;3.63;;
65130;SDS011;51709;54.912;8.316;2023-03-25T16:53:38;22.40;;;3.65;;
65130;SDS011;51709;54.912;8.316;2023-03-25T16:59:01;20.70;;;4.70;;
65130;SDS011;51709;54.912;8.316;2023-03-25T17:04:25;15.73;;;2.47;;
65130;SDS011;51709;54.912;8.316;2023-03-25T17:10:04;12.07;;;3.28;;
65130;SDS011;51709;54.912;8.316;2023-03-25T17:15:37;17.58;;;3.65;;
65130;SDS011;51709;54.912;8.316;2023-03-25T17:20:58;12.48;;;2.58;;
65130;SDS011;51709;54.912;8.316;2023-03-25T17:26:24;13.77;;;2.60;;
65130;SDS011;51709;54.912;8.316;2023-03-25T17:31:55;17.98;;;2.45;;
65130;SDS011;51709;54.912;8.316;2023-03-25T17:37:19;20.17;;;2.88;;
65130;SDS011;51709;54.912;8.316;2023-03-25T17:42:44;13.07;;;3.13;;
65130;SDS011;51709;54.912;8.316;2023-03-25T17:48:08;14.90;;;4.32;;
65130;SDS011;51709;54.912;8.316;2023-03-25T17:53:36;6.10;;;2.67;;
65130;SDS011;51709;54.912;8.316;2023-03-25T17:58:58;6.20;;;1.92;;
65130;SDS011;51709;54.912;8.316;2023-03-25T18:04:21;16.30;;;2.10;;
65130;SDS011;51709;54.912;8.316;2023-03-25T18:09:42;5.32;;;2.33;;
65130;SDS011;51709;54.912;8.316;2023-03-25T18:15:04;9.15;;;2.28;;
65130;SDS011;51709;54.912;8.316;2023-03-25T18:20:30;7.63;;;1.80;;
65130;SDS011;51709;54.912;8.316;2023-03-25T18:25:52;6.65;;;2.00;;
65130;SDS011;51709;54.912;8.316;2023-03-25T18:31:14;9.82;;;2.13;;
65130;SDS011;51709;54.912;8.316;2023-03-25T18:36:37;5.13;;;1.23;;
65130;SDS011;51709;54.912;8.316;2023-03-25T18:41:58;9.93;;;2.03;;
65130;SDS011;51709;54.912;8.316;2023-03-25T18:47:19;13.35;;;2.40;;
65130;SDS011;51709;54.912;8.316;2023-03-25T18:52:39;4.00;;;1.50;;
65130;SDS011;51709;54.912;8.316;2023-03-25T18:58:01;11.45;;;2.22;;
65130;SDS011;51709;54.912;8.316;2023-03-25T19:03:22;8.88;;;1.75;;
65130;SDS011;51709;54.912;8.316;2023-03-25T19:08:51;8.68;;;2.10;;
65130;SDS011;51709;54.912;8.316;2023-03-25T19:14:11;19.10;;;1.98;;
65130;SDS011;51709;54.912;8.316;2023-03-25T19:19:32;11.10;;;2.05;;
65130;SDS011;51709;54.912;8.316;2023-03-25T19:24:52;13.27;;;2.20;;
65130;SDS011;51709;54.912;8.316;2023-03-25T19:30:18;14.23;;;2.45;;
65130;SDS011;51709;54.912;8.316;2023-03-25T19:35:40;8.45;;;2.38;;
65130;SDS011;51709;54.912;8.316;2023-03-25T19:41:06;13.77;;;2.70;;
65130;SDS011;51709;54.912;8.316;2023-03-25T19:46:28;23.63;;;3.35;;
65130;SDS011;51709;54.912;8.316;2023-03-25T19:51:50;17.42;;;5.25;;
65130;SDS011;51709;54.912;8.316;2023-03-25T19:57:11;24.02;;;4.10;;
65130;SDS011;51709;54.912;8.316;2023-03-25T20:02:32;10.63;;;2.13;;
65130;SDS011;51709;54.912;8.316;2023-03-25T20:07:53;12.25;;;2.83;;
65130;SDS011;51709;54.912;8.316;2023-03-25T20:13:16;21.53;;;4.17;;
65130;SDS011;51709;54.912;8.316;2023-03-25T20:18:37;14.80;;;3.75;;
65130;SDS011;51709;54.912;8.316;2023-03-25T20:24:00;12.05;;;3.17;;
65130;SDS011;51709;54.912;8.316;2023-03-25T20:29:21;14.23;;;2.65;;
65130;SDS011;51709;54.912;8.316;2023-03-25T20:34:43;24.17;;;3.95;;
65130;SDS011;51709;54.912;8.316;2023-03-25T20:40:05;23.50;;;2.88;;
65130;SDS011;51709;54.912;8.316;2023-03-25T20:45:29;20.25;;;4.13;;
65130;SDS011;51709;54.912;8.316;2023-03-25T20:50:59;14.63;;;3.05;;
65130;SDS011;51709;54.912;8.316;2023-03-25T20:56:22;19.13;;;3.80;;
65130;SDS011;51709;54.912;8.316;2023-03-25T21:01:43;9.70;;;2.47;;
65130;SDS011;51709;54.912;8.316;2023-03-25T21:07:09;20.08;;;2.97;;
65130;SDS011;51709;54.912;8.316;2023-03-25T21:12:30;18.55;;;3.13;;
65130;SDS011;51709;54.912;8.316;2023-03-25T21:18:02;12.25;;;2.40;;
65130;SDS011;51709;54.912;8.316;2023-03-25T21:23:23;15.80;;;2.67;;
65130;SDS011;51709;54.912;8.316;2023-03-25T21:28:51;11.68;;;2.22;;
65130;SDS011;51709;54.912;8.316;2023-03-25T21:34:12;7.80;;;2.13;;
65130;SDS011;51709;54.912;8.316;2023-03-25T21:39:35;11.38;;;2.70;;
65130;SDS011;51709;54.912;8.316;2023-03-25T21:44:57;9.70;;;1.88;;
65130;SDS011;51709;54.912;8.316;2023-03-25T21:50:19;15.15;;;2.85;;
65130;SDS011;51709;54.912;8.316;2023-03-25T21:55:41;16.38;;;2.63;;
65130;SDS011;51709;54.912;8.316;2023-03-25T22:01:05;16.67;;;2.33;;
65130;SDS011;51709;54.912;8.316;2023-03-25T22:06:30;13.18;;;2.30;;
65130;SDS011;51709;54.912;8.316;2023-03-25T22:11:53;9.27;;;2.65;;
65130;SDS011;51709;54.912;8.316;2023-03-25T22:17:15;9.00;;;2.75;;
65130;SDS011;51709;54.912;8.316;2023-03-25T22:22:35;6.95;;;2.17;;
65130;SDS011;51709;54.912;8.316;2023-03-25T22:27:56;10.45;;;2.22;;
65130;SDS011;51709;54.912;8.316;2023-03-25T22:33:17;11.27;;;2.85;;
65130;SDS011;51709;54.912;8.316;2023-03-25T22:38:39;16.60;;;2.80;;
65130;SDS011;51709;54.912;8.316;2023-03-25T22:44:02;12.02;;;2.25;;
65130;SDS011;51709;54.912;8.316;2023-03-25T22:49:23;13.70;;;2.30;;
65130;SDS011;51709;54.912;8.316;2023-03-25T22:54:44;6.38;;;2.53;;
65130;SDS011;51709;54.912;8.316;2023-03-25T23:00:08;9.15;;;1.98;;
65130;SDS011;51709;54.912;8.316;2023-03-25T23:05:33;11.27;;;1.75;;
65130;SDS011;51709;54.912;8.316;2023-03-25T23:10:56;16.67;;;2.88;;
65130;SDS011;51709;54.912;8.316;2023-03-25T23:16:19;18.33;;;3.10;;
65130;SDS011;51709;54.912;8.316;2023-03-25T23:21:42;18.38;;;2.60;;
65130;SDS011;51709;54.912;8.316;2023-03-25T23:27:04;13.65;;;2.28;;
65130;SDS011;51709;54.912;8.316;2023-03-25T23:32:27;11.20;;;2.05;;
65130;SDS011;51709;54.912;8.316;2023-03-25T23:37:48;5.68;;;1.70;;
65130;SDS011;51709;54.912;8.316;2023-03-25T23:43:09;16.23;;;2.65;;
65130;SDS011;51709;54.912;8.316;2023-03-25T23:48:31;12.27;;;1.90;;
65130;SDS011;51709;54.912;8.316;2023-03-25T23:53:52;6.75;;;1.75;;
65130;SDS011;51709;54.912;8.316;2023-03-25T23:59:13;10.73;;;1.50;;
